Asian Infinity — 3EVP3 — position and weather

sailwx.info

Track history (hours):
 
Tides and Currents Weather Stations Pressure Air Temp Water Temp Dewpoint Dewpoint Depression Visibility Wind Speed Wind Dir Waves Ship Positions

Asian Infinity

Last reported at 2016-May-01 13:27 UTC. Time now 2016-May-04 01:57 UTC.
Position N 35°08' E 120°21'.

Length 104 m; draft 7.7 m.

Type: Cargo ship. MMSI: 351868000.

Date/timePositionNaut miles runAvg speedWind from/ knotsBaromVisibWave heightAir tempDewpointWater temp
2016-May-01 13:27N 35°08' E 120°21'9 9.3
2016-May-01 12:30N 35°11' E 120°11'11 9.7
2016-May-01 11:21N 35°14' E 119°58'810.0
2016-May-01 10:30N 35°16' E 119°48'9 9.1
2016-May-01 09:33N 35°18' E 119°38'5 0.2
2016-Apr-29 22:05N 35°21' E 119°32'0 0.0
2016-Apr-29 20:23N 35°21' E 119°32'0 0.0
2016-Apr-29 19:29N 35°21' E 119°32'0 0.0
2016-Apr-29 17:05N 35°21' E 119°32'0 0.0
2016-Apr-29 16:30N 35°21' E 119°32'0 0.0
2016-Apr-29 14:24N 35°22' E 119°32'0 0.0
2016-Apr-29 12:06N 35°22' E 119°32'3 5.3
2016-Apr-29 11:31N 35°20' E 119°35'6 0.9
2016-Apr-29 05:25N 35°20' E 119°42'0 0.0
2016-Apr-29 04:30N 35°20' E 119°42'0 0.1
2016-Apr-29 03:33N 35°20' E 119°42'0 0.1
2016-Apr-29 02:30N 35°19' E 119°42'0 0.0
2016-Apr-29 01:22N 35°19' E 119°42'0 0.0
2016-Apr-29 00:31N 35°19' E 119°42'0 0.0
2016-Apr-28 23:27N 35°19' E 119°42'8 6.6
2016-Apr-28 22:17N 35°19' E 119°51'16611.3
2016-Apr-28 07:33N 36°50' E 122°43'2912.6
2016-Apr-28 05:16N 37°16' E 122°58'1513.4
2016-Apr-28 04:08N 37°32' E 122°57'1012.2
2016-Apr-28 03:17N 37°39' E 122°48'912.2
2016-Apr-28 02:33N 37°44' E 122°38'3812.7
2016-Apr-27 23:33N 38°03' E 121°57'1513.2
2016-Apr-27 22:25N 38°11' E 121°41'1313.3
2016-Apr-27 21:28N 38°18' E 121°27'17810.2
2016-Apr-27 04:05N 38°59' E 117°45'0 0.0
2016-Apr-27 03:29N 38°59' E 117°45'0 0.0
2016-Apr-27 02:29N 38°59' E 117°45'0 0.0
2016-Apr-27 01:17N 38°59' E 117°45'0 0.0
2016-Apr-27 00:23N 38°59' E 117°45'0 0.0
2016-Apr-26 23:29N 38°59' E 117°45'0 0.0
2016-Apr-26 22:23N 38°59' E 117°45'0 0.0
2016-Apr-26 21:23N 38°59' E 117°45'0 0.0
2016-Apr-26 20:05N 38°59' E 117°45'0 0.0
2016-Apr-26 19:29N 38°59' E 117°45'0 0.0
2016-Apr-26 18:29N 38°59' E 117°45'0 0.0
2016-Apr-26 17:29N 38°59' E 117°45'0 0.0
2016-Apr-26 16:29N 38°59' E 117°45'0 0.0
2016-Apr-26 15:29N 38°59' E 117°45'0 0.0
2016-Apr-26 14:11N 38°59' E 117°45'0 0.0
2016-Apr-26 13:29N 38°59' E 117°45'0 0.0
2016-Apr-26 12:11N 38°59' E 117°45'0 0.0
2016-Apr-26 11:29N 38°59' E 117°45'0 0.0
2016-Apr-26 10:29N 38°59' E 117°45'0 0.0
2016-Apr-26 09:23N 38°59' E 117°45'0 0.0
2016-Apr-26 08:17N 38°59' E 117°45'0 0.0
2016-Apr-26 07:26N 38°59' E 117°45'0 0.0
2016-Apr-26 02:29N 38°59' E 117°45'0 0.0
2016-Apr-26 01:29N 38°59' E 117°45'0 0.0
2016-Apr-26 00:29N 38°59' E 117°45'0 0.0
2016-Apr-25 23:23N 38°59' E 117°45'0 0.0
2016-Apr-25 22:23N 38°59' E 117°45'0 0.0
2016-Apr-25 21:29N 38°59' E 117°45'0 0.0
2016-Apr-25 20:29N 38°59' E 117°45'0 0.0
2016-Apr-25 19:23N 38°59' E 117°45'0 0.0
2016-Apr-25 18:29N 38°59' E 117°45'0 0.0
2016-Apr-25 17:23N 38°59' E 117°45'0 0.0
2016-Apr-25 16:29N 38°59' E 117°45'0 0.0
2016-Apr-25 15:29N 38°59' E 117°45'0 0.0
2016-Apr-25 14:29N 38°59' E 117°45'0 0.0
2016-Apr-25 13:23N 38°59' E 117°45'0 0.0
2016-Apr-25 12:29N 38°59' E 117°45'0 0.0
2016-Apr-25 11:29N 38°59' E 117°45'0 0.0
2016-Apr-25 10:29N 38°59' E 117°45'0 0.0
2016-Apr-25 09:23N 38°59' E 117°45'0 0.0
2016-Apr-25 08:11N 38°59' E 117°45'0 0.0
2016-Apr-25 07:29N 38°59' E 117°45'0 0.0
2016-Apr-25 06:17N 38°59' E 117°45'0 0.0
2016-Apr-25 05:17N 38°59' E 117°45'0 0.0
2016-Apr-25 04:17N 38°59' E 117°45'0 0.3
2016-Apr-25 03:33N 38°59' E 117°45'9 9.2
2016-Apr-25 02:32N 38°57' E 117°57'105 4.8
2016-Apr-24 04:31N 38°43' E 120°11'3711.8
2016-Apr-24 01:24N 38°36' E 120°57'1910.3
2016-Apr-23 23:32N 38°32' E 121°21'1010.3
2016-Apr-23 22:33N 38°32' E 121°34'9 8.5
2016-Apr-23 21:33N 38°36' E 121°43'1110.9
2016-Apr-23 20:33N 38°47' E 121°45'1410.0
2016-Apr-23 19:10N 39°01' E 121°45'7 0.4
2016-Apr-23 00:30N 38°54' E 121°48'1011.0
2016-Apr-22 23:33N 38°44' E 121°54'1110.8
2016-Apr-22 22:33N 38°36' E 122°03'1 0.6
2016-Apr-22 21:27N 38°36' E 122°03'1010.7
2016-Apr-22 20:31N 38°28' E 122°11'3310.9
2016-Apr-22 17:30N 38°02' E 122°37'1110.4
2016-Apr-22 16:25N 37°53' E 122°45'910.4
2016-Apr-22 15:33N 37°46' E 122°52'1210.2
2016-Apr-22 14:21N 37°36' E 123°02'810.5
2016-Apr-22 13:33N 37°28' E 123°03'1211.3
2016-Apr-22 12:32N 37°17' E 123°02'1212.1
2016-Apr-22 11:33N 37°05' E 123°03'1212.5
2016-Apr-22 10:33N 36°52' E 123°04'  
Track history (hours):
 
Tides and Currents Weather Stations Pressure Air Temp Water Temp Dewpoint Dewpoint Depression Visibility Wind Speed Wind Dir Waves Ship Positions

Asian Infinity

Last reported at 2016-May-01 13:27 UTC. Time now 2016-May-04 01:57 UTC.
Position N 35°08' E 120°21'.

Length 104 m; draft 7.7 m.

Type: Cargo ship. MMSI: 351868000.

Date/timePositionNaut miles runAvg speedWind from/ knotsBaromVisibWave heightAir tempDewpointWater temp
2016-May-01 13:27N 35°08' E 120°21'9 9.3
2016-May-01 12:30N 35°11' E 120°11'11 9.7
2016-May-01 11:21N 35°14' E 119°58'810.0
2016-May-01 10:30N 35°16' E 119°48'9 9.1
2016-May-01 09:33N 35°18' E 119°38'5 0.2
2016-Apr-29 22:05N 35°21' E 119°32'0 0.0
2016-Apr-29 20:23N 35°21' E 119°32'0 0.0
2016-Apr-29 19:29N 35°21' E 119°32'0 0.0
2016-Apr-29 17:05N 35°21' E 119°32'0 0.0
2016-Apr-29 16:30N 35°21' E 119°32'0 0.0
2016-Apr-29 14:24N 35°22' E 119°32'0 0.0
2016-Apr-29 12:06N 35°22' E 119°32'3 5.3
2016-Apr-29 11:31N 35°20' E 119°35'6 0.9
2016-Apr-29 05:25N 35°20' E 119°42'0 0.0
2016-Apr-29 04:30N 35°20' E 119°42'0 0.1
2016-Apr-29 03:33N 35°20' E 119°42'0 0.1
2016-Apr-29 02:30N 35°19' E 119°42'0 0.0
2016-Apr-29 01:22N 35°19' E 119°42'0 0.0
2016-Apr-29 00:31N 35°19' E 119°42'0 0.0
2016-Apr-28 23:27N 35°19' E 119°42'8 6.6
2016-Apr-28 22:17N 35°19' E 119°51'16611.3
2016-Apr-28 07:33N 36°50' E 122°43'2912.6
2016-Apr-28 05:16N 37°16' E 122°58'1513.4
2016-Apr-28 04:08N 37°32' E 122°57'1012.2
2016-Apr-28 03:17N 37°39' E 122°48'912.2
2016-Apr-28 02:33N 37°44' E 122°38'3812.7
2016-Apr-27 23:33N 38°03' E 121°57'1513.2
2016-Apr-27 22:25N 38°11' E 121°41'1313.3
2016-Apr-27 21:28N 38°18' E 121°27'17810.2
2016-Apr-27 04:05N 38°59' E 117°45'0 0.0
2016-Apr-27 03:29N 38°59' E 117°45'0 0.0
2016-Apr-27 02:29N 38°59' E 117°45'0 0.0
2016-Apr-27 01:17N 38°59' E 117°45'0 0.0
2016-Apr-27 00:23N 38°59' E 117°45'0 0.0
2016-Apr-26 23:29N 38°59' E 117°45'0 0.0
2016-Apr-26 22:23N 38°59' E 117°45'0 0.0
2016-Apr-26 21:23N 38°59' E 117°45'0 0.0
2016-Apr-26 20:05N 38°59' E 117°45'0 0.0
2016-Apr-26 19:29N 38°59' E 117°45'0 0.0
2016-Apr-26 18:29N 38°59' E 117°45'0 0.0
2016-Apr-26 17:29N 38°59' E 117°45'0 0.0
2016-Apr-26 16:29N 38°59' E 117°45'0 0.0
2016-Apr-26 15:29N 38°59' E 117°45'0 0.0
2016-Apr-26 14:11N 38°59' E 117°45'0 0.0
2016-Apr-26 13:29N 38°59' E 117°45'0 0.0
2016-Apr-26 12:11N 38°59' E 117°45'0 0.0
2016-Apr-26 11:29N 38°59' E 117°45'0 0.0
2016-Apr-26 10:29N 38°59' E 117°45'0 0.0
2016-Apr-26 09:23N 38°59' E 117°45'0 0.0
2016-Apr-26 08:17N 38°59' E 117°45'0 0.0
2016-Apr-26 07:26N 38°59' E 117°45'0 0.0
2016-Apr-26 02:29N 38°59' E 117°45'0 0.0
2016-Apr-26 01:29N 38°59' E 117°45'0 0.0
2016-Apr-26 00:29N 38°59' E 117°45'0 0.0
2016-Apr-25 23:23N 38°59' E 117°45'0 0.0
2016-Apr-25 22:23N 38°59' E 117°45'0 0.0
2016-Apr-25 21:29N 38°59' E 117°45'0 0.0
2016-Apr-25 20:29N 38°59' E 117°45'0 0.0
2016-Apr-25 19:23N 38°59' E 117°45'0 0.0
2016-Apr-25 18:29N 38°59' E 117°45'0 0.0
2016-Apr-25 17:23N 38°59' E 117°45'0 0.0
2016-Apr-25 16:29N 38°59' E 117°45'0 0.0
2016-Apr-25 15:29N 38°59' E 117°45'0 0.0
2016-Apr-25 14:29N 38°59' E 117°45'0 0.0
2016-Apr-25 13:23N 38°59' E 117°45'0 0.0
2016-Apr-25 12:29N 38°59' E 117°45'0 0.0
2016-Apr-25 11:29N 38°59' E 117°45'0 0.0
2016-Apr-25 10:29N 38°59' E 117°45'0 0.0
2016-Apr-25 09:23N 38°59' E 117°45'0 0.0
2016-Apr-25 08:11N 38°59' E 117°45'0 0.0
2016-Apr-25 07:29N 38°59' E 117°45'0 0.0
2016-Apr-25 06:17N 38°59' E 117°45'0 0.0
2016-Apr-25 05:17N 38°59' E 117°45'0 0.0
2016-Apr-25 04:17N 38°59' E 117°45'0 0.3
2016-Apr-25 03:33N 38°59' E 117°45'9 9.2
2016-Apr-25 02:32N 38°57' E 117°57'105 4.8
2016-Apr-24 04:31N 38°43' E 120°11'3711.8
2016-Apr-24 01:24N 38°36' E 120°57'1910.3
2016-Apr-23 23:32N 38°32' E 121°21'1010.3
2016-Apr-23 22:33N 38°32' E 121°34'9 8.5
2016-Apr-23 21:33N 38°36' E 121°43'1110.9
2016-Apr-23 20:33N 38°47' E 121°45'1410.0
2016-Apr-23 19:10N 39°01' E 121°45'7 0.4
2016-Apr-23 00:30N 38°54' E 121°48'1011.0
2016-Apr-22 23:33N 38°44' E 121°54'1110.8
2016-Apr-22 22:33N 38°36' E 122°03'1 0.6
2016-Apr-22 21:27N 38°36' E 122°03'1010.7
2016-Apr-22 20:31N 38°28' E 122°11'3310.9
2016-Apr-22 17:30N 38°02' E 122°37'1110.4
2016-Apr-22 16:25N 37°53' E 122°45'910.4
2016-Apr-22 15:33N 37°46' E 122°52'1210.2
2016-Apr-22 14:21N 37°36' E 123°02'810.5
2016-Apr-22 13:33N 37°28' E 123°03'1211.3
2016-Apr-22 12:32N 37°17' E 123°02'1212.1
2016-Apr-22 11:33N 37°05' E 123°03'1212.5
2016-Apr-22 10:33N 36°52' E 123°04'  

Dump ship's entire track history